Time;durP1;ratioP1;P1;durP2;ratioP2;P2;SDS_P1;SDS_P2;PMS_P1;PMS_P2;Temp;Humidity;BMP_temperature;BMP_pressure;BME280_temperature;BME280_humidity;BME280_pressure;Samples;Min_cycle;Max_cycle;Signal;HPM_P1;HPM_P2
2023/03/21 00:00:57;;;;;;;;;;;;;;;19.08;59.07;98903.09;2073310;28;22402;-52
2023/03/21 00:01:57;;;;;;;;;;;;;;;19.07;58.79;98906.84;2073701;28;19932;-54
2023/03/21 00:02:58;;;;;;;;;;;;;;;19.06;58.94;98903.31;2073564;28;19939;-52
2023/03/21 00:04:00;;;;;;;;;;;;;;;19.06;58.64;98899.81;2077192;28;19994;-55
2023/03/21 00:05:02;;;;;;;;;;;;;;;19.07;58.76;98898.78;2071969;28;19972;-53
2023/03/21 00:06:04;;;;;;;;;;;;;;;19.04;58.88;98896.47;2070454;28;21140;-50
2023/03/21 00:07:06;;;;;;;;;;;;;;;19.04;58.91;98893.78;2065507;28;19929;-54
2023/03/21 00:08:07;;;;;;;;;;;;;;;19.03;58.73;98900.19;2062851;28;19972;-53
2023/03/21 00:09:08;;;;;;;;;;;;;;;19.01;58.91;98897.72;2061776;28;19929;-51
2023/03/21 00:10:09;;;;;;;;;;;;;;;19.02;58.66;98898.53;2064282;28;20639;-49
2023/03/21 00:11:11;;;;;;;;;;;;;;;19.01;58.69;98899.56;2070116;28;20004;-53
2023/03/21 00:12:13;;;;;;;;;;;;;;;19.01;58.77;98896.88;2076566;28;20015;-53
2023/03/21 00:13:15;;;;;;;;;;;;;;;18.98;58.71;98898.94;2080927;28;19956;-51
2023/03/21 00:14:17;;;;;;;;;;;;;;;18.98;58.76;98892.72;2077921;28;19966;-52
2023/03/21 00:15:19;;;;;;;;;;;;;;;18.98;58.99;98892.72;2077034;28;19940;-50
2023/03/21 00:16:20;;;;;;;;;;;;;;;18.98;58.79;98898.09;2076860;28;20391;-53
2023/03/21 00:17:22;;;;;;;;;;;;;;;18.97;58.76;98885.69;2077279;28;19929;-57
2023/03/21 00:18:24;;;;;;;;;;;;;;;18.96;58.86;98892.09;2076827;28;19925;-53
2023/03/21 00:19:28;;;;;;;;;;;;;;;18.95;58.77;98882.38;2079086;28;19929;-55
2023/03/21 00:20:29;;;;;;;;;;;;;;;18.95;59.03;98882.38;2076790;28;20035;-52
2023/03/21 00:21:31;;;;;;;;;;;;;;;18.95;58.72;98885.91;2081273;28;20463;-50
2023/03/21 00:22:33;;;;;;;;;;;;;;;18.93;58.57;98882.56;2076338;28;19933;-52
2023/03/21 00:23:35;;;;;;;;;;;;;;;18.93;58.78;98882.56;2078257;28;19929;-51
2023/03/21 00:24:36;;;;;;;;;;;;;;;18.93;58.78;98879.88;2075044;28;19962;-52
2023/03/21 00:25:37;;;;;;;;;;;;;;;18.95;58.96;98888.59;2078853;28;19933;-52
2023/03/21 00:26:38;;;;;;;;;;;;;;;18.92;58.72;98880.09;2079134;28;20040;-54
2023/03/21 00:27:39;;;;;;;;;;;;;;;18.91;58.69;98881.94;2076826;28;20291;-53
2023/03/21 00:28:41;;;;;;;;;;;;;;;18.92;58.63;98882.78;2078138;28;19972;-50
2023/03/21 00:29:42;;;;;;;;;;;;;;;18.91;58.67;98883.78;2080326;28;20291;-51
2023/03/21 00:30:43;;;;;;;;;;;;;;;18.89;58.56;98878.63;2076031;28;19929;-55
2023/03/21 00:31:44;;;;;;;;;;;;;;;18.89;58.71;98883.19;2076534;28;19979;-53
2023/03/21 00:32:45;;;;;;;;;;;;;;;18.88;58.85;98885.03;2076914;28;19936;-54
2023/03/21 00:33:47;;;;;;;;;;;;;;;18.88;58.50;98879.66;2077226;28;20509;-52
2023/03/21 00:34:49;;;;;;;;;;;;;;;18.89;58.82;98884.00;2078185;28;19978;-54
2023/03/21 00:35:52;;;;;;;;;;;;;;;18.90;58.81;98882.16;2077383;28;20048;-52
2023/03/21 00:36:52;;;;;;;;;;;;;;;18.89;58.66;98881.31;2077216;28;20300;-55
2023/03/21 00:37:53;;;;;;;;;;;;;;;18.88;58.59;98874.28;2075513;28;19925;-54
2023/03/21 00:38:54;;;;;;;;;;;;;;;18.88;58.59;98876.97;2079798;28;20421;-50
2023/03/21 00:39:55;;;;;;;;;;;;;;;18.87;58.46;98888.75;2072791;28;19983;-53
2023/03/21 00:40:56;;;;;;;;;;;;;;;18.86;58.59;98876.34;2063682;28;19933;-51
2023/03/21 00:41:57;;;;;;;;;;;;;;;18.85;58.68;98874.66;2062406;28;19929;-50
2023/03/21 00:42:58;;;;;;;;;;;;;;;18.84;58.85;98877.56;2063607;28;19929;-53
2023/03/21 00:43:59;;;;;;;;;;;;;;;18.84;58.77;98874.88;2065733;28;19932;-52
2023/03/21 00:45:00;;;;;;;;;;;;;;;18.85;58.58;98874.66;2060728;28;22659;-54
2023/03/21 00:46:02;;;;;;;;;;;;;;;18.85;58.48;98874.66;2062807;28;19940;-54
2023/03/21 00:47:04;;;;;;;;;;;;;;;18.86;58.42;98872.81;2062986;28;19932;-53
2023/03/21 00:48:06;;;;;;;;;;;;;;;18.85;58.43;98877.34;2062209;28;19933;-51
2023/03/21 00:49:06;;;;;;;;;;;;;;;18.86;58.68;98880.88;2064964;28;20517;-50
2023/03/21 00:50:10;;;;;;;;;;;;;;;18.84;58.51;98866.81;2071381;28;19955;-51
2023/03/21 00:51:14;;;;;;;;;;;;;;;18.84;58.61;98875.72;2068506;28;19964;-54
2023/03/21 00:52:15;;;;;;;;;;;;;;;18.82;58.59;98868.88;2064251;28;20770;-56
2023/03/21 00:53:16;;;;;;;;;;;;;;;18.81;58.77;98870.75;2069264;28;20017;-53
2023/03/21 00:54:17;;;;;;;;;;;;;;;18.80;58.41;98866.38;2083296;28;19936;-53
2023/03/21 00:55:18;;;;;;;;;;;;;;;18.78;58.43;98871.13;2084645;28;20076;-53
2023/03/21 00:56:20;;;;;;;;;;;;;;;18.80;58.74;98874.44;2085420;28;19986;-50
2023/03/21 00:57:20;;;;;;;;;;;;;;;18.81;58.54;98876.13;2072699;28;19940;-49
2023/03/21 00:58:22;;;;;;;;;;;;;;;18.80;58.53;98870.94;2071056;28;20731;-54
2023/03/21 00:59:22;;;;;;;;;;;;;;;18.79;58.54;98867.41;2072383;28;19932;-52
2023/03/21 01:00:24;;;;;;;;;;;;;;;18.79;58.41;98864.72;2072921;28;19994;-55
2023/03/21 01:01:25;;;;;;;;;;;;;;;18.78;58.46;98873.81;2081942;28;19924;-53
2023/03/21 01:02:26;;;;;;;;;;;;;;;18.78;58.60;98865.75;2069508;28;20023;-53
2023/03/21 01:03:27;;;;;;;;;;;;;;;18.78;58.62;98865.75;2070936;28;19932;-51
2023/03/21 01:04:29;;;;;;;;;;;;;;;18.77;58.33;98865.94;2070982;28;19982;-60
2023/03/21 01:06:52;;;;;;;;;;;;;;;18.77;58.66;98857.88;2071806;28;19928;-49
2023/03/21 01:07:52;;;;;;;;;;;;;;;18.75;58.36;98863.47;2070149;28;19928;-52
2023/03/21 01:08:54;;;;;;;;;;;;;;;18.73;58.85;98857.44;2070369;28;20501;-60
2023/03/21 01:09:55;;;;;;;;;;;;;;;18.71;58.49;98856.78;2071722;28;20433;-59
2023/03/21 01:10:56;;;;;;;;;;;;;;;18.72;58.49;98858.44;2072500;28;19928;-56
2023/03/21 01:11:58;;;;;;;;;;;;;;;18.72;58.33;98853.06;2068192;28;19929;-59
2023/03/21 01:12:58;;;;;;;;;;;;;;;18.71;58.39;98851.44;2070748;28;20810;-55
2023/03/21 01:13:59;;;;;;;;;;;;;;;18.72;58.34;98851.25;2070676;28;19936;-53
2023/03/21 01:15:00;;;;;;;;;;;;;;;18.71;58.50;98843.38;2078259;28;20014;-57
2023/03/21 01:16:04;;;;;;;;;;;;;;;18.68;58.55;98849.97;2072026;28;19933;-54
2023/03/21 01:17:04;;;;;;;;;;;;;;;18.69;58.52;98856.16;2070493;28;19940;-60
2023/03/21 01:18:06;;;;;;;;;;;;;;;18.68;58.36;98851.81;2072067;28;19924;-54
2023/03/21 01:19:07;;;;;;;;;;;;;;;18.69;58.48;98850.78;2070066;28;19997;-59
2023/03/21 01:20:10;;;;;;;;;;;;;;;18.68;58.46;98849.13;2072778;28;20765;-53
2023/03/21 01:21:13;;;;;;;;;;;;;;;18.66;58.41;98853.88;2081286;28;19932;-57
2023/03/21 01:22:14;;;;;;;;;;;;;;;18.64;58.60;98847.88;2074591;28;19952;-55
2023/03/21 01:23:15;;;;;;;;;;;;;;;18.63;58.46;98854.28;2073703;28;20927;-56
2023/03/21 01:24:16;;;;;;;;;;;;;;;18.64;58.47;98846.03;2063339;28;19933;-55
2023/03/21 01:25:17;;;;;;;;;;;;;;;18.63;58.52;98848.91;2061795;28;19975;-56
2023/03/21 01:26:18;;;;;;;;;;;;;;;18.61;58.58;98845.56;2065600;28;19937;-53
2023/03/21 01:27:19;;;;;;;;;;;;;;;18.61;58.66;98848.25;2062001;28;19986;-49
2023/03/21 01:28:20;;;;;;;;;;;;;;;18.62;58.44;98841.88;2064727;28;20011;-56
2023/03/21 01:29:21;;;;;;;;;;;;;;;18.62;58.65;98840.00;2063781;28;20031;-58
2023/03/21 01:30:22;;;;;;;;;;;;;;;18.62;58.41;98841.88;2068131;28;19940;-57
2023/03/21 01:31:22;;;;;;;;;;;;;;;18.61;58.59;98841.06;2069805;28;19924;-59
2023/03/21 01:32:24;;;;;;;;;;;;;;;18.60;58.53;98842.06;2071872;28;20485;-60
2023/03/21 01:33:25;;;;;;;;;;;;;;;18.59;58.63;98847.66;2071895;28;19929;-55
2023/03/21 01:34:27;;;;;;;;;;;;;;;18.57;58.67;98841.63;2071698;28;21904;-60
2023/03/21 01:35:27;;;;;;;;;;;;;;;18.57;58.43;98849.69;2072986;28;19932;-54
2023/03/21 01:36:30;;;;;;;;;;;;;;;18.57;58.36;98847.00;2080710;28;20440;-60
2023/03/21 01:37:31;;;;;;;;;;;;;;;18.56;58.49;98842.69;2072286;28;20013;-58
2023/03/21 01:38:32;;;;;;;;;;;;;;;18.57;58.71;98849.69;2072089;28;20066;-54
2023/03/21 01:39:34;;;;;;;;;;;;;;;18.55;58.64;98847.19;2072498;28;19928;-58
2023/03/21 01:40:35;;;;;;;;;;;;;;;18.54;58.39;98845.53;2068773;28;19932;-56
2023/03/21 01:41:39;;;;;;;;;;;;;;;18.51;58.70;98851.31;2069017;28;19932;-57
2023/03/21 01:42:39;;;;;;;;;;;;;;;18.51;58.51;98843.25;2073268;28;20268;-59
2023/03/21 01:43:41;;;;;;;;;;;;;;;18.50;58.54;98839.75;2068503;28;20006;-59
2023/03/21 01:44:51;;;;;;;;;;;;;;;18.49;58.77;98842.63;2073654;28;25732;-55
2023/03/21 01:46:11;;;;;;;;;;;;;;;18.50;58.46;98839.75;2073829;28;19936;-59
2023/03/21 01:47:12;;;;;;;;;;;;;;;18.47;58.61;98840.16;2071081;28;20740;-55
2023/03/21 01:48:14;;;;;;;;;;;;;;;18.49;58.70;98839.94;2071739;28;20652;-48
2023/03/21 01:49:20;;;;;;;;;;;;;;;18.48;58.62;98836.41;2072405;28;20267;-55
2023/03/21 01:50:21;;;;;;;;;;;;;;;18.47;58.44;98834.78;2072315;28;20015;-51
2023/03/21 01:51:24;;;;;;;;;;;;;;;18.46;58.70;98833.09;2077102;28;19940;-52
2023/03/21 01:52:29;;;;;;;;;;;;;;;18.46;58.73;98838.47;2079449;28;20014;-55
2023/03/21 01:53:30;;;;;;;;;;;;;;;18.46;58.67;98829.59;2071842;28;19931;-57
2023/03/21 01:54:36;;;;;;;;;;;;;;;18.47;58.67;98826.72;2070809;28;19932;-54
2023/03/21 01:55:37;;;;;;;;;;;;;;;18.46;58.40;98827.72;2071676;28;19939;-60
2023/03/21 01:56:39;;;;;;;;;;;;;;;18.44;58.37;98826.25;2071158;28;20063;-60
2023/03/21 01:57:41;;;;;;;;;;;;;;;18.44;58.50;98835.19;2071874;28;20037;-59
2023/03/21 01:58:44;;;;;;;;;;;;;;;18.44;58.33;98831.63;2070751;28;19932;-59
2023/03/21 01:59:48;;;;;;;;;;;;;;;18.43;58.46;98830.81;2073518;28;19959;-51
2023/03/21 02:00:51;;;;;;;;;;;;;;;18.42;58.75;98822.97;2069910;28;19939;-55
2023/03/21 02:01:52;;;;;;;;;;;;;;;18.40;58.53;98831.22;2070822;28;19970;-54
2023/03/21 02:02:54;;;;;;;;;;;;;;;18.40;58.74;98825.84;2072883;28;24576;-58
2023/03/21 02:03:55;;;;;;;;;;;;;;;18.39;58.69;98826.88;2071468;28;20422;-55
2023/03/21 02:04:57;;;;;;;;;;;;;;;18.38;58.63;98830.56;2071844;28;20014;-57
2023/03/21 02:06:00;;;;;;;;;;;;;;;18.38;58.73;98825.19;2071781;28;19946;-59
2023/03/21 02:07:04;;;;;;;;;;;;;;;18.38;58.56;98827.06;2073679;28;19939;-54
2023/03/21 02:08:07;;;;;;;;;;;;;;;18.39;58.64;98821.50;2075517;28;19928;-49
2023/03/21 02:09:10;;;;;;;;;;;;;;;18.39;58.52;98818.81;2072419;28;21530;-51
2023/03/21 02:10:13;;;;;;;;;;;;;;;18.38;58.57;98822.50;2081452;28;19928;-54
2023/03/21 02:11:15;;;;;;;;;;;;;;;18.36;58.57;98824.59;2086675;28;20171;-50
2023/03/21 02:12:17;;;;;;;;;;;;;;;18.35;58.67;98822.91;2086103;28;19947;-55
2023/03/21 02:13:18;;;;;;;;;;;;;;;18.33;58.62;98822.31;2086155;28;19929;-53
2023/03/21 02:14:20;;;;;;;;;;;;;;;18.35;58.67;98819.41;2083931;28;20775;-56
2023/03/21 02:15:22;;;;;;;;;;;;;;;18.33;58.58;98824.97;2085987;28;19959;-53
2023/03/21 02:16:28;;;;;;;;;;;;;;;18.33;58.56;98816.94;2087777;28;19979;-49
2023/03/21 02:17:33;;;;;;;;;;;;;;;18.33;58.69;98813.38;2086844;28;19928;-53
2023/03/21 02:18:37;;;;;;;;;;;;;;;18.34;58.48;98812.38;2085774;28;20331;-55
2023/03/21 02:19:55;;;;;;;;;;;;;;;18.34;58.68;98818.56;2086300;28;19929;-54
2023/03/21 02:21:24;;;;;;;;;;;;;;;18.34;58.68;98812.38;2087028;28;20330;-49
2023/03/21 02:22:37;;;;;;;;;;;;;;;18.31;58.52;98819.81;2050706;28;19930;-57
2023/03/21 02:24:06;;;;;;;;;;;;;;;18.30;58.56;98818.16;2077772;28;19932;-59
2023/03/21 02:25:16;;;;;;;;;;;;;;;18.29;58.70;98810.28;2088015;28;20020;-56
2023/03/21 02:26:27;;;;;;;;;;;;;;;18.28;58.55;98814.00;2086719;28;19976;-56
2023/03/21 02:27:28;;;;;;;;;;;;;;;18.28;58.53;98803.25;2085288;28;19929;-52
2023/03/21 02:28:33;;;;;;;;;;;;;;;18.27;58.62;98806.94;2086589;28;20448;-56
2023/03/21 02:29:44;;;;;;;;;;;;;;;18.27;58.57;98807.78;2085378;28;19928;-50
2023/03/21 02:30:55;;;;;;;;;;;;;;;18.29;58.62;98804.91;2085609;28;19987;-54
2023/03/21 02:32:01;;;;;;;;;;;;;;;18.29;58.39;98799.53;2076557;28;19975;-56
2023/03/21 02:33:33;;;;;;;;;;;;;;;18.28;58.65;98803.25;2085948;28;19983;-54
2023/03/21 02:34:50;;;;;;;;;;;;;;;18.25;58.70;98804.47;2084476;28;19936;-59
2023/03/21 02:36:00;;;;;;;;;;;;;;;18.25;58.41;98795.59;2085667;28;20306;-50
2023/03/21 02:37:08;;;;;;;;;;;;;;;18.23;58.60;98789.59;2085423;28;19928;-49
2023/03/21 02:38:12;;;;;;;;;;;;;;;18.23;58.78;98805.69;2083208;28;20570;-57
2023/03/21 02:39:17;;;;;;;;;;;;;;;18.20;58.63;98798.03;2084748;28;20961;-49
2023/03/21 02:40:21;;;;;;;;;;;;;;;18.20;58.58;98796.19;2074683;28;21376;-59
2023/03/21 02:41:28;;;;;;;;;;;;;;;18.23;58.76;98805.69;2070429;28;20402;-60
2023/03/21 02:42:33;;;;;;;;;;;;;;;18.21;58.62;98797.00;2072769;28;19929;-53
2023/03/21 02:43:39;;;;;;;;;;;;;;;18.19;58.66;98799.91;2070509;28;20996;-60
2023/03/21 02:44:42;;;;;;;;;;;;;;;18.20;58.86;98801.56;2071413;28;19931;-60
2023/03/21 02:45:47;;;;;;;;;;;;;;;18.20;58.61;98803.41;2071247;28;20043;-60
2023/03/21 02:46:50;;;;;;;;;;;;;;;18.20;58.76;98806.09;2069948;28;23087;-58
2023/03/21 02:47:54;;;;;;;;;;;;;;;18.20;58.76;98806.09;2069396;28;20310;-54
2023/03/21 02:48:57;;;;;;;;;;;;;;;18.19;58.60;98804.41;2071385;28;19974;-58
2023/03/21 02:50:03;;;;;;;;;;;;;;;18.18;58.68;98803.59;2071357;28;19932;-58
2023/03/21 02:51:06;;;;;;;;;;;;;;;18.17;58.55;98807.31;2073407;28;20013;-50
2023/03/21 02:52:11;;;;;;;;;;;;;;;18.16;58.67;98800.28;2072296;28;19929;-56
2023/03/21 02:53:15;;;;;;;;;;;;;;;18.16;58.67;98799.44;2071406;28;19932;-52
2023/03/21 02:54:17;;;;;;;;;;;;;;;18.15;58.58;98797.81;2084935;28;19981;-53
2023/03/21 02:55:22;;;;;;;;;;;;;;;18.16;58.61;98804.81;2085489;28;20578;-55
2023/03/21 02:56:24;;;;;;;;;;;;;;;18.16;58.53;98802.97;2082080;28;20338;-49
2023/03/21 02:57:26;;;;;;;;;;;;;;;18.15;58.50;98800.47;2073540;28;20060;-56
2023/03/21 02:58:27;;;;;;;;;;;;;;;18.15;58.62;98808.53;2071061;28;20411;-59
2023/03/21 02:59:30;;;;;;;;;;;;;;;18.13;58.61;98805.22;2074091;28;20051;-50
2023/03/21 03:00:32;;;;;;;;;;;;;;;18.12;58.70;98795.50;2075057;28;19936;-58
2023/03/21 03:01:34;;;;;;;;;;;;;;;18.10;58.81;98803.75;2086747;28;19933;-58
2023/03/21 03:02:34;;;;;;;;;;;;;;;18.07;58.64;98804.97;2086188;28;20121;-57
2023/03/21 03:03:38;;;;;;;;;;;;;;;18.09;58.58;98802.94;2086965;28;20451;-51
2023/03/21 03:04:38;;;;;;;;;;;;;;;18.08;58.76;98803.97;2088699;28;19936;-53
2023/03/21 03:05:42;;;;;;;;;;;;;;;18.09;58.67;98799.41;2076697;28;19935;-55
2023/03/21 03:06:48;;;;;;;;;;;;;;;18.08;58.54;98801.28;2076689;28;20919;-55
2023/03/21 03:07:57;;;;;;;;;;;;;;;18.09;58.58;98796.72;2072192;28;19938;-59
2023/03/21 03:09:10;;;;;;;;;;;;;;;18.09;58.60;98805.59;2073097;28;20756;-50
2023/03/21 03:10:29;;;;;;;;;;;;;;;18.06;58.61;98797.94;2073226;28;19928;-59
2023/03/21 03:11:32;;;;;;;;;;;;;;;18.04;58.73;98797.31;2067660;28;20555;-59
2023/03/21 03:12:41;;;;;;;;;;;;;;;18.05;58.80;98800.81;2068565;28;20560;-56
2023/03/21 03:13:52;;;;;;;;;;;;;;;18.04;58.70;98799.16;2071556;28;19951;-52
2023/03/21 03:14:56;;;;;;;;;;;;;;;18.05;58.71;98792.75;2069418;28;19932;-60
2023/03/21 03:16:04;;;;;;;;;;;;;;;18.03;58.67;98798.34;2068991;28;19967;-55
2023/03/21 03:17:11;;;;;;;;;;;;;;;18.03;58.88;98801.03;2066035;28;19940;-60
2023/03/21 03:18:18;;;;;;;;;;;;;;;18.02;58.72;98802.03;2069287;28;19932;-59
2023/03/21 03:19:24;;;;;;;;;;;;;;;18.02;58.62;98799.34;2073076;28;19998;-49
2023/03/21 03:20:28;;;;;;;;;;;;;;;18.02;58.56;98787.78;2066984;28;20019;-60
2023/03/21 03:21:32;;;;;;;;;;;;;;;18.03;58.61;98795.66;2072583;28;19929;-51
2023/03/21 03:22:39;;;;;;;;;;;;;;;18.00;58.64;98789.88;2074316;28;19932;-57
2023/03/21 03:23:45;;;;;;;;;;;;;;;18.01;58.59;98788.84;2070920;28;20039;-58
2023/03/21 03:24:50;;;;;;;;;;;;;;;18.00;58.68;98792.56;2080289;28;19940;-56
2023/03/21 03:25:54;;;;;;;;;;;;;;;17.99;58.93;98789.00;2068656;28;20133;-57
2023/03/21 03:26:57;;;;;;;;;;;;;;;18.00;58.66;98788.00;2066656;28;20533;-54
2023/03/21 03:28:01;;;;;;;;;;;;;;;18.02;58.81;98790.47;2067366;28;20043;-58
2023/03/21 03:29:04;;;;;;;;;;;;;;;18.01;58.73;98791.50;2068468;28;19936;-50
2023/03/21 03:30:08;;;;;;;;;;;;;;;17.99;58.46;98791.69;2071586;28;19935;-59
2023/03/21 03:31:11;;;;;;;;;;;;;;;17.98;58.60;98787.38;2072499;28;19936;-51
2023/03/21 03:32:16;;;;;;;;;;;;;;;17.98;58.76;98794.59;2067989;28;19933;-60
2023/03/21 03:33:22;;;;;;;;;;;;;;;17.98;58.77;98795.41;2068236;28;19969;-59
2023/03/21 03:34:25;;;;;;;;;;;;;;;17.97;58.52;98791.09;2068314;28;19933;-59
2023/03/21 03:35:26;;;;;;;;;;;;;;;17.95;58.88;98787.75;2067108;28;19932;-55
2023/03/21 03:36:35;;;;;;;;;;;;;;;17.96;58.80;98793.94;2065212;28;19932;-57
2023/03/21 03:37:37;;;;;;;;;;;;;;;17.96;58.50;98796.63;2067949;28;19932;-52
2023/03/21 03:38:40;;;;;;;;;;;;;;;17.95;58.62;98793.13;2067190;28;20035;-59
2023/03/21 03:39:45;;;;;;;;;;;;;;;17.96;58.72;98794.78;2069595;28;19932;-53
2023/03/21 03:40:49;;;;;;;;;;;;;;;17.96;58.70;98794.78;2083468;28;19962;-55
2023/03/21 03:41:53;;;;;;;;;;;;;;;17.96;58.64;98802.00;2077655;28;19937;-52
2023/03/21 03:42:58;;;;;;;;;;;;;;;17.94;58.62;98799.53;2067326;28;19932;-57
2023/03/21 03:43:59;;;;;;;;;;;;;;;17.92;58.66;98798.88;2068811;28;20011;-59
2023/03/21 03:45:01;;;;;;;;;;;;;;;17.92;58.67;98798.88;2065924;28;22582;-58
2023/03/21 03:46:11;;;;;;;;;;;;;;;17.92;58.58;98798.06;2072060;28;19973;-51
2023/03/21 03:47:13;;;;;;;;;;;;;;;17.90;58.66;98792.88;2059228;28;19945;-60
2023/03/21 03:48:16;;;;;;;;;;;;;;;17.91;58.73;98799.06;2059652;28;19933;-54
2023/03/21 03:49:21;;;;;;;;;;;;;;;17.90;58.91;98792.88;2063857;28;20551;-53
2023/03/21 03:50:25;;;;;;;;;;;;;;;17.91;58.83;98797.22;2063515;28;20073;-56
2023/03/21 03:51:29;;;;;;;;;;;;;;;17.90;58.88;98797.41;2062755;28;19933;-52
2023/03/21 03:52:31;;;;;;;;;;;;;;;17.91;58.91;98796.38;2060606;28;20330;-55
2023/03/21 03:53:35;;;;;;;;;;;;;;;17.92;58.57;98798.06;2055879;28;20028;-54
2023/03/21 03:54:37;;;;;;;;;;;;;;;17.91;58.82;98799.88;2068034;28;20019;-52
2023/03/21 03:55:40;;;;;;;;;;;;;;;17.89;58.85;98793.91;2064386;28;19935;-55
2023/03/21 03:56:41;;;;;;;;;;;;;;;17.89;58.52;98793.09;2065355;28;19932;-55
2023/03/21 03:57:43;;;;;;;;;;;;;;;17.89;58.94;98793.09;2064990;28;19933;-53
2023/03/21 03:58:43;;;;;;;;;;;;;;;17.88;58.75;98794.91;2063225;28;19933;-53
2023/03/21 03:59:45;;;;;;;;;;;;;;;17.88;58.63;98799.47;2067646;28;20070;-53
2023/03/21 04:00:46;;;;;;;;;;;;;;;17.86;58.64;98795.13;2064382;28;19925;-52
2023/03/21 04:01:48;;;;;;;;;;;;;;;17.85;58.73;98793.44;2063697;28;20045;-56
2023/03/21 04:02:48;;;;;;;;;;;;;;;17.85;59.08;98793.44;2064652;28;20517;-53
2023/03/21 04:03:49;;;;;;;;;;;;;;;17.88;58.72;98792.22;2062938;28;19935;-54
2023/03/21 04:04:52;;;;;;;;;;;;;;;17.89;58.60;98795.78;2064600;28;19978;-55
2023/03/21 04:05:53;;;;;;;;;;;;;;;17.85;58.74;98792.63;2064411;28;19932;-55
2023/03/21 04:06:54;;;;;;;;;;;;;;;17.83;58.66;98790.16;2064575;28;20555;-53
2023/03/21 04:07:55;;;;;;;;;;;;;;;17.85;58.67;98792.63;2064292;28;20035;-53
2023/03/21 04:08:56;;;;;;;;;;;;;;;17.83;58.65;98792.84;2064573;28;19929;-54
2023/03/21 04:09:58;;;;;;;;;;;;;;;17.86;58.73;98791.63;2074684;28;19960;-52
2023/03/21 04:11:01;;;;;;;;;;;;;;;17.85;58.74;98789.94;2080041;28;19975;-54
2023/03/21 04:12:03;;;;;;;;;;;;;;;17.85;58.45;98792.63;2077359;28;19929;-49
2023/03/21 04:13:03;;;;;;;;;;;;;;;17.84;58.45;98786.44;2078925;28;20403;-52
2023/03/21 04:14:05;;;;;;;;;;;;;;;17.85;58.72;98788.09;2078047;28;19933;-50
2023/03/21 04:15:06;;;;;;;;;;;;;;;17.85;58.48;98798.00;2085010;28;19924;-51
2023/03/21 04:16:08;;;;;;;;;;;;;;;17.84;58.60;98799.03;2088745;28;19935;-53
2023/03/21 04:17:10;;;;;;;;;;;;;;;17.84;58.66;98794.50;2087181;28;20562;-50
2023/03/21 04:18:11;;;;;;;;;;;;;;;17.84;58.56;98797.16;2087314;28;19990;-52
2023/03/21 04:19:11;;;;;;;;;;;;;;;17.84;58.81;98794.50;2089210;28;19932;-53
2023/03/21 04:20:13;;;;;;;;;;;;;;;17.82;58.71;98795.69;2087814;28;19933;-54
2023/03/21 04:21:14;;;;;;;;;;;;;;;17.82;58.79;98798.38;2085733;28;20648;-53
2023/03/21 04:22:15;;;;;;;;;;;;;;;17.83;58.71;98794.69;2086894;28;19932;-51
2023/03/21 04:23:17;;;;;;;;;;;;;;;17.81;58.79;98794.88;2086514;28;19944;-54
2023/03/21 04:24:19;;;;;;;;;;;;;;;17.82;58.62;98795.69;2086076;28;19929;-50
2023/03/21 04:25:19;;;;;;;;;;;;;;;17.81;58.78;98791.38;2087060;28;19974;-53
2023/03/21 04:26:23;;;;;;;;;;;;;;;17.81;58.78;98797.56;2086865;28;20587;-52
2023/03/21 04:27:23;;;;;;;;;;;;;;;17.81;58.67;98802.94;2088574;28;20334;-52
2023/03/21 04:28:25;;;;;;;;;;;;;;;17.84;58.69;98801.72;2085565;28;19932;-52
2023/03/21 04:29:28;;;;;;;;;;;;;;;17.81;58.74;98791.38;2089970;28;19936;-52
2023/03/21 04:30:32;;;;;;;;;;;;;;;17.79;58.80;98788.03;2084681;28;19929;-50
2023/03/21 04:31:34;;;;;;;;;;;;;;;17.79;58.73;98788.03;2086688;28;19929;-51
2023/03/21 04:32:38;;;;;;;;;;;;;;;17.79;58.92;98782.69;2086375;28;19935;-54
2023/03/21 04:33:38;;;;;;;;;;;;;;;17.78;58.81;98787.22;2086063;28;20001;-50
2023/03/21 04:34:40;;;;;;;;;;;;;;;17.79;58.90;98788.03;2085620;28;21004;-53
2023/03/21 04:35:41;;;;;;;;;;;;;;;17.78;58.88;98786.38;2087494;28;19929;-51
2023/03/21 04:36:46;;;;;;;;;;;;;;;17.78;58.63;98787.22;2087056;27;19936;-53
2023/03/21 04:37:46;;;;;;;;;;;;;;;17.79;58.70;98782.69;2086736;28;20548;-52
2023/03/21 04:38:48;;;;;;;;;;;;;;;17.80;58.58;98785.19;2086243;28;19928;-49
2023/03/21 04:39:48;;;;;;;;;;;;;;;17.83;58.77;98778.59;2086020;28;19951;-54
2023/03/21 04:40:50;;;;;;;;;;;;;;;17.87;58.47;98779.84;2085784;28;20474;-51
2023/03/21 04:41:52;;;;;;;;;;;;;;;17.91;58.38;98786.47;2069784;28;20001;-54
2023/03/21 04:42:53;;;;;;;;;;;;;;;17.94;58.39;98780.75;2066629;28;19964;-54
2023/03/21 04:43:54;;;;;;;;;;;;;;;17.97;58.25;98779.50;2065132;28;19928;-53
2023/03/21 04:44:56;;;;;;;;;;;;;;;17.99;58.24;98786.31;2071460;28;19937;-52
2023/03/21 04:45:56;;;;;;;;;;;;;;;18.03;58.35;98776.88;2068809;28;20005;-52
2023/03/21 04:46:58;;;;;;;;;;;;;;;18.06;58.23;98781.84;2073473;28;21072;-53
2023/03/21 04:47:58;;;;;;;;;;;;;;;18.10;58.18;98779.59;2068689;28;19929;-54
2023/03/21 04:49:00;;;;;;;;;;;;;;;18.16;58.39;98780.66;2064943;28;20746;-52
2023/03/21 04:50:01;;;;;;;;;;;;;;;18.20;58.14;98781.94;2068134;28;21865;-52
2023/03/21 04:51:02;;;;;;;;;;;;;;;18.26;58.12;98786.50;2075795;28;20062;-54
2023/03/21 04:52:03;;;;;;;;;;;;;;;18.29;58.14;98778.88;2071799;28;19932;-54
2023/03/21 04:53:04;;;;;;;;;;;;;;;18.33;57.84;98773.97;2069953;28;20295;-53
2023/03/21 04:54:05;;;;;;;;;;;;;;;18.38;57.76;98776.84;2082294;28;20932;-50
2023/03/21 04:55:08;;;;;;;;;;;;;;;18.41;58.02;98776.47;2086406;28;20006;-50
2023/03/21 04:56:09;;;;;;;;;;;;;;;18.44;57.92;98775.22;2080224;28;19932;-54
2023/03/21 04:57:12;;;;;;;;;;;;;;;18.48;57.94;98777.34;2072620;28;20015;-50
2023/03/21 04:58:12;;;;;;;;;;;;;;;18.51;57.84;98774.25;2073820;28;19933;-54
2023/03/21 04:59:15;;;;;;;;;;;;;;;18.57;57.77;98782.53;2069551;28;19932;-54
2023/03/21 05:00:16;;;;;;;;;;;;;;;18.57;57.63;98780.69;2071413;28;19940;-51
2023/03/21 05:01:19;;;;;;;;;;;;;;;18.59;57.71;98773.25;2083634;28;19929;-54
2023/03/21 05:02:20;;;;;;;;;;;;;;;18.65;57.40;98771.63;2071405;28;20011;-51
2023/03/21 05:03:21;;;;;;;;;;;;;;;18.67;57.38;98774.94;2070223;28;21929;-50
2023/03/21 05:04:22;;;;;;;;;;;;;;;18.71;57.79;98773.50;2069796;28;20295;-51
2023/03/21 05:05:23;;;;;;;;;;;;;;;18.73;57.65;98774.16;2070426;28;20010;-53
2023/03/21 05:06:24;;;;;;;;;;;;;;;18.73;57.36;98777.66;2071580;28;19932;-53
2023/03/21 05:07:26;;;;;;;;;;;;;;;18.77;57.65;98770.03;2071021;28;19932;-54
2023/03/21 05:08:27;;;;;;;;;;;;;;;18.81;57.41;98774.00;2070089;28;20026;-54
2023/03/21 05:09:28;;;;;;;;;;;;;;;18.85;57.20;98777.94;2071743;28;20569;-53
2023/03/21 05:10:29;;;;;;;;;;;;;;;18.86;57.32;98774.22;2070773;28;20683;-54
2023/03/21 05:11:31;;;;;;;;;;;;;;;18.90;57.41;98772.78;2073180;28;20004;-53
2023/03/21 05:12:33;;;;;;;;;;;;;;;18.92;57.20;98770.72;2073705;28;19936;-54
2023/03/21 05:13:35;;;;;;;;;;;;;;;18.93;57.31;98767.00;2071116;28;20493;-54
2023/03/21 05:14:35;;;;;;;;;;;;;;;18.95;57.08;98770.31;2069618;28;19928;-53
2023/03/21 05:15:37;;;;;;;;;;;;;;;18.98;56.94;98774.47;2071082;28;19964;-54
2023/03/21 05:16:38;;;;;;;;;;;;;;;19.02;57.13;98772.19;2069576;28;19974;-53
2023/03/21 05:17:41;;;;;;;;;;;;;;;19.03;56.86;98768.47;2069787;28;20787;-53
2023/03/21 05:18:42;;;;;;;;;;;;;;;19.05;56.75;98769.91;2069682;28;19933;-52
2023/03/21 05:19:43;;;;;;;;;;;;;;;19.07;56.77;98767.03;2070894;28;19939;-53
2023/03/21 05:20:43;;;;;;;;;;;;;;;19.10;56.67;98772.00;2073308;28;19932;-53
2023/03/21 05:21:45;;;;;;;;;;;;;;;19.13;56.91;98774.28;2071639;28;19929;-54
2023/03/21 05:22:49;;;;;;;;;;;;;;;19.14;56.88;98767.91;2069528;28;20322;-52
2023/03/21 05:23:53;;;;;;;;;;;;;;;19.17;56.77;98770.16;2069149;28;20011;-52
2023/03/21 05:24:54;;;;;;;;;;;;;;;19.18;56.81;98769.94;2069171;28;19932;-52
2023/03/21 05:25:55;;;;;;;;;;;;;;;19.19;56.66;98770.78;2068682;28;19928;-52
2023/03/21 05:27:00;;;;;;;;;;;;;;;19.20;56.53;98761.69;2073305;28;20395;-52
2023/03/21 05:28:04;;;;;;;;;;;;;;;19.23;56.76;98774.72;2074083;28;21112;-52
2023/03/21 05:29:04;;;;;;;;;;;;;;;19.23;56.53;98768.53;2070955;28;19971;-52
2023/03/21 05:30:07;;;;;;;;;;;;;;;19.23;56.62;98769.34;2071665;28;19933;-52